• Join FlightAware (Why Join?)
  • Login
  • US Flag 
01:22PM EDT


 

Airport Tracker/Info


-or-


 

Live Flight TrackerFlight Track Log ✈ SKW6345 ✈ 18-Jun-2013 ✈ KLAX - KSAN

Flight Track Log - Related Links

Times and Time Zones

All times are in EDT time to prevent confusion due to time zone crossing. See the SKW6345 flight status page for this flight to view local times or setup timezone preferences in your user account.

Time Position Orientation Groundspeed Altitude Reporting Facility
EDT Latitude Longitude Course Direction KTS MPH feet Rate Location/Type
08:32PM 33.9167 -118.4500 195° South 168 193 2,500  Level Southern California TRACON
08:33PM 33.8667 -118.4667 195° South 201 231 3,800 1,320 Climbing Southern California TRACON
08:34PM 33.8433 -118.4506 150° Southeast 197 227 4,800 1,680 Climbing Los Angeles Center
08:35PM 33.7783 -118.4322 167° South 201 231 6,700 1,500 Climbing Los Angeles Center
08:36PM 33.7261 -118.4061 157° South 214 246 8,000 1,080 Climbing Los Angeles Center
08:37PM 33.6819 -118.3561 137° Southeast 222 255 9,000 480 Climbing Los Angeles Center
08:38PM 33.6442 -118.2858 123° Southeast 258 297 9,100  Climbing Los Angeles Center
08:39PM 33.6008 -118.1894 118° Southeast 275 316 9,100  Level Los Angeles Center
08:40PM 33.5625 -118.1072 119° Southeast 281 323 9,100  Level Los Angeles Center
08:41PM 33.5161 -118.0306 126° Southeast 285 328 9,100  Level Los Angeles Center
08:42PM 33.4678 -117.9564 128° Southeast 283 326 9,100 -60 Level Los Angeles Center
08:43PM 33.4167 -117.8667 124° Southeast 282 325 9,000  Descending Southern California TRACON
08:44PM 33.3739 -117.8050 130° Southeast 284 327 9,100  Climbing Los Angeles Center
08:45PM 33.3178 -117.7144 127° Southeast 284 327 9,100  Level Los Angeles Center
08:46PM 33.2714 -117.6394 126° Southeast 282 325 9,100  Level Los Angeles Center
08:47PM 33.2167 -117.5667 132° Southeast 286 329 9,100  Level Southern California TRACON
08:48PM 33.1500 -117.5167 148° Southeast 281 323 9,100  Level Southern California TRACON
08:49PM 33.0833 -117.4667 148° Southeast 281 323 9,100 -240 Level Southern California TRACON
08:50PM 33.0167 -117.4167 148° Southeast 280 322 8,700 -480 Descending Southern California TRACON
08:51PM 32.9667 -117.3667 140° Southeast 275 316 8,200 -600 Descending Southern California TRACON
08:52PM 32.9167 -117.3000 132° Southeast 231 266 7,500 -600 Descending Southern California TRACON
08:53PM 32.8833 -117.2500 128° Southeast 217 250 7,000 -240 Descending Southern California TRACON
08:54PM 32.8333 -117.1833 132° Southeast 231 266 7,100  Climbing Southern California TRACON
08:55PM 32.8167 -117.1167 107° East 230 265 7,100 -180 Level Southern California TRACON
08:56PM 32.8000 -117.0500 107° East 223 257 6,800 -540 Descending Southern California TRACON
08:57PM 32.7667 -116.9833 121° Southeast 223 257 6,100 -420 Descending Southern California TRACON
08:58PM 32.7500 -116.9167 107° East 208 239 6,000 -60 Descending Southern California TRACON
08:59PM 32.7000 -116.8833 151° Southeast 207 238 6,000 -480 Level Southern California TRACON
09:00PM 32.6667 -116.9333 232° Southwest 209 241 5,100 -1,020 Descending Southern California TRACON
09:01PM 32.6833 -116.9833 292° West 176 203 4,000 -1,200 Descending Southern California TRACON
09:02PM 32.7000 -117.0333 292° West 177 204 2,700 -960 Descending Southern California TRACON
09:03PM 32.7167 -117.0833 292° West 150 173 2,100 -780 Descending Southern California TRACON
09:04PM 32.7167 -117.1333 270° West 143 165 1,200 -960 Descending Southern California TRACON
09:05PM 32.7289 -117.1664 294° West 142 163 400 -1,020 Descending Los Angeles Center